Dunglen, Ohio
Current Conditions -  °F | °C
As of 12:53 AM on Saturday 20 Dec 2014 (Local Time) from KHLG Reporting Station
Overcast Overcast  
Wind Chill: 29°   Ceiling: 2300
Heat Index: 29°   Visibility: 10mi
Dew Point: 19°   Wind: 0mph
Humidity: 67%   Direction: NA
Pressure: 30.24"   Gusts: NA
Location:  40.2215°N, 80.8189°W
Report Text: KHLG 200553Z AUTO 00000KT 10SM OVC023 M02/M07 A3024 RMK AO2 SLP258 T10171072 11011 21017 55004
Loading
Personal Weather Stations






























Interactive Weather Map New forecast layout! Learn more

10-Day Weather Forecast

Advertisements
Track Severe Weather on mobile